createdAt,value
2019-01-16T00:04:56.323Z,4
2019-01-16T00:09:56.439Z,5
2019-01-16T00:14:56.445Z,5
2019-01-16T00:19:56.315Z,5
2019-01-16T00:25:30.054Z,5
2019-01-16T00:29:56.409Z,5
2019-01-16T00:34:56.525Z,5
2019-01-16T00:39:56.408Z,5
2019-01-16T00:44:56.411Z,5
2019-01-16T00:49:56.363Z,7
2019-01-16T00:54:56.515Z,5
2019-01-16T00:59:56.498Z,7
2019-01-16T01:04:56.384Z,5
2019-01-16T01:09:56.260Z,4
2019-01-16T01:14:56.226Z,5
2019-01-16T01:19:56.421Z,5
2019-01-16T01:24:56.533Z,5
2019-01-16T01:29:56.353Z,4
2019-01-16T01:34:56.518Z,4
2019-01-16T01:39:56.395Z,4
2019-01-16T01:44:56.385Z,4
2019-01-16T01:49:56.187Z,5
2019-01-16T01:54:56.154Z,7
2019-01-16T01:59:56.427Z,5
2019-01-16T02:04:56.368Z,8
2019-01-16T02:09:56.225Z,8
2019-01-16T02:14:56.173Z,10
2019-01-16T02:19:56.476Z,10
2019-01-16T02:24:56.187Z,8
2019-01-16T02:29:56.330Z,10
2019-01-16T02:34:56.284Z,11
2019-01-16T02:39:56.454Z,12
2019-01-16T02:44:56.210Z,10
2019-01-16T02:49:56.403Z,10
2019-01-16T02:54:56.411Z,9
2019-01-16T02:59:56.333Z,11
2019-01-16T03:04:56.115Z,10
2019-01-16T03:09:56.405Z,7
2019-01-16T03:14:56.042Z,8
2019-01-16T03:19:56.337Z,11
2019-01-16T03:24:56.137Z,13
2019-01-16T03:29:55.985Z,12
2019-01-16T03:34:56.074Z,15
2019-01-16T03:39:56.294Z,15
2019-01-16T03:44:56.294Z,16
2019-01-16T03:49:56.088Z,17
2019-01-16T03:54:56.119Z,17
2019-01-16T03:59:56.159Z,17
2019-01-16T04:04:56.162Z,16
2019-01-16T04:09:56.023Z,18
2019-01-16T04:14:56.137Z,18
2019-01-16T04:19:56.041Z,22
2019-01-16T04:24:56.125Z,18
2019-01-16T04:29:55.997Z,19
2019-01-16T04:34:55.961Z,20
2019-01-16T04:39:56.158Z,21
2019-01-16T04:44:56.271Z,17
2019-01-16T04:49:56.136Z,17
2019-01-16T04:54:56.230Z,18
2019-01-16T04:59:56.252Z,17
2019-01-16T05:04:56.252Z,19
2019-01-16T05:09:56.173Z,17
2019-01-16T05:14:55.964Z,17
2019-01-16T05:19:55.923Z,18
2019-01-16T05:24:55.850Z,17
2019-01-16T05:29:56.110Z,17
2019-01-16T05:34:56.019Z,24
2019-01-16T05:39:55.866Z,21
2019-01-16T05:44:55.913Z,19
2019-01-16T05:49:55.840Z,20
2019-01-16T05:54:55.804Z,20
2019-01-16T05:59:55.964Z,20
2019-01-16T06:04:56.002Z,20
2019-01-16T06:09:55.960Z,22
2019-01-16T06:14:55.906Z,20
2019-01-16T06:19:55.772Z,20
2019-01-16T06:24:56.081Z,19
2019-01-16T06:29:56.005Z,19
2019-01-16T06:34:56.002Z,19
2019-01-16T06:39:55.884Z,17
2019-01-16T06:44:55.883Z,17
2019-01-16T06:50:01.627Z,18
2019-01-16T06:54:56.038Z,16
2019-01-16T06:59:55.938Z,19
2019-01-16T07:04:55.827Z,17
2019-01-16T07:09:55.713Z,14
2019-01-16T07:14:55.685Z,14
2019-01-16T07:19:55.738Z,18
2019-01-16T07:24:55.974Z,14
2019-01-16T07:29:55.811Z,20
2019-01-16T07:34:55.863Z,20
2019-01-16T07:39:55.658Z,20
2019-01-16T07:44:55.989Z,19
2019-01-16T07:49:56.359Z,16
2019-01-16T07:54:55.854Z,14
2019-01-16T07:59:55.787Z,17
2019-01-16T08:04:55.860Z,14
2019-01-16T08:09:55.864Z,12
2019-01-16T08:14:55.813Z,20
2019-01-16T08:19:55.628Z,14
2019-01-16T08:24:55.701Z,11
2019-01-16T08:29:55.715Z,10
2019-01-16T08:34:55.755Z,12
2019-01-16T08:39:55.663Z,13
2019-01-16T08:44:55.704Z,11
2019-01-16T08:49:55.947Z,11
2019-01-16T08:54:55.890Z,13
2019-01-16T08:59:55.701Z,8
2019-01-16T09:04:55.678Z,10
2019-01-16T09:09:55.742Z,8
2019-01-16T09:14:55.521Z,7
2019-01-16T09:19:55.686Z,11
2019-01-16T09:24:55.581Z,8
2019-01-16T09:29:55.778Z,11
2019-01-16T09:34:55.729Z,8
2019-01-16T09:39:55.493Z,7
2019-01-16T09:44:55.625Z,6
2019-01-16T09:49:55.478Z,8
2019-01-16T09:54:55.444Z,8
2019-01-16T09:59:55.695Z,9
2019-01-16T10:04:56.888Z,8
2019-01-16T10:09:55.631Z,10
2019-01-16T10:14:55.646Z,10
2019-01-16T10:19:55.435Z,11
2019-01-16T10:24:55.428Z,13
2019-01-16T10:29:55.669Z,10
2019-01-16T10:34:55.418Z,11
2019-01-16T10:39:55.624Z,10
2019-01-16T10:44:55.700Z,8
2019-01-16T10:49:55.555Z,10
2019-01-16T10:54:55.521Z,7
2019-01-16T10:59:55.465Z,11
2019-01-16T11:04:55.561Z,13
2019-01-16T11:09:55.535Z,11
2019-01-16T11:14:55.610Z,10
2019-01-16T11:19:55.363Z,7
2019-01-16T11:24:55.615Z,7
2019-01-16T11:29:55.586Z,4
2019-01-16T11:34:55.541Z,10
2019-01-16T11:39:55.415Z,10
2019-01-16T11:44:55.656Z,10
2019-01-16T11:49:55.515Z,12
2019-01-16T11:54:55.391Z,13
2019-01-16T11:59:55.300Z,13
2019-01-16T12:04:55.312Z,11
2019-01-16T12:09:55.490Z,15
2019-01-16T12:14:55.417Z,13
2019-01-16T12:19:55.251Z,14
2019-01-16T12:24:55.535Z,13
2019-01-16T12:29:55.373Z,12
2019-01-16T12:34:55.262Z,12
2019-01-16T12:39:55.536Z,13
2019-01-16T12:44:55.484Z,15
2019-01-16T12:49:55.330Z,14
2019-01-16T12:54:55.517Z,13
2019-01-16T12:59:55.352Z,14
2019-01-16T13:04:55.226Z,13
2019-01-16T13:09:55.451Z,13
2019-01-16T13:14:55.322Z,15
2019-01-16T13:19:55.287Z,18
2019-01-16T13:24:55.206Z,16
2019-01-16T13:29:55.464Z,15
2019-01-16T13:34:55.431Z,18
2019-01-16T13:39:55.397Z,18
2019-01-16T13:44:55.202Z,18
2019-01-16T13:49:55.418Z,21
2019-01-16T13:54:55.457Z,18
2019-01-16T13:59:55.242Z,18
2019-01-16T14:04:55.245Z,18
2019-01-16T14:09:55.186Z,17
2019-01-16T14:14:55.241Z,19
2019-01-16T14:19:55.123Z,19
2019-01-16T14:24:55.124Z,19
2019-01-16T14:29:55.305Z,19
2019-01-16T14:34:55.392Z,20
2019-01-16T14:39:55.204Z,15
2019-01-16T14:44:55.169Z,18
2019-01-16T14:49:55.079Z,18
2019-01-16T14:54:55.319Z,19
2019-01-16T14:59:55.226Z,18
2019-01-16T15:04:55.133Z,17
2019-01-16T15:09:55.025Z,17
2019-01-16T15:14:55.312Z,17
2019-01-16T15:19:55.176Z,15
2019-01-16T15:24:55.143Z,16
2019-01-16T15:29:55.052Z,16
2019-01-16T15:34:55.057Z,16
2019-01-16T15:39:55.280Z,12
2019-01-16T15:44:55.178Z,14
2019-01-16T15:49:54.987Z,15
2019-01-16T15:54:55.253Z,11
2019-01-16T15:59:55.150Z,14
2019-01-16T16:04:55.165Z,13
2019-01-16T16:09:54.909Z,14
2019-01-16T16:14:54.888Z,14
2019-01-16T16:19:55.197Z,13
2019-01-16T16:24:55.062Z,14
2019-01-16T16:29:55.007Z,12
2019-01-16T16:34:54.993Z,11
2019-01-16T16:39:54.869Z,11
2019-01-16T16:44:54.885Z,11
2019-01-16T16:49:54.967Z,14
2019-01-16T16:54:54.828Z,14
2019-01-16T16:59:55.049Z,17
2019-01-16T17:04:55.052Z,15
2019-01-16T17:09:54.947Z,16
2019-01-16T17:14:54.868Z,14
2019-01-16T17:19:55.174Z,14
2019-01-16T17:24:55.046Z,16
2019-01-16T17:29:55.092Z,16
2019-01-16T17:34:54.974Z,18
2019-01-16T17:39:54.799Z,17
2019-01-16T17:44:54.839Z,20
2019-01-16T17:49:55.079Z,14
2019-01-16T17:54:54.894Z,20
2019-01-16T17:59:54.748Z,16
2019-01-16T18:04:55.099Z,14
2019-01-16T18:09:55.094Z,15
2019-01-16T18:14:55.069Z,13
2019-01-16T18:19:54.915Z,13
2019-01-16T18:24:54.801Z,15
2019-01-16T18:29:55.043Z,16
2019-01-16T18:34:54.967Z,15
2019-01-16T18:39:55.032Z,13
2019-01-16T18:44:54.934Z,16
2019-01-16T18:49:54.802Z,16
2019-01-16T18:54:54.762Z,15
2019-01-16T18:59:54.696Z,16
2019-01-16T19:04:54.681Z,16
2019-01-16T19:09:54.997Z,13
2019-01-16T19:14:54.645Z,16
2019-01-16T19:19:54.877Z,16
2019-01-16T19:24:54.819Z,15
2019-01-16T19:29:54.719Z,17
2019-01-16T19:34:54.779Z,17
2019-01-16T19:39:54.596Z,15
2019-01-16T19:44:54.605Z,14
2019-01-16T19:49:54.856Z,18
2019-01-16T19:54:54.907Z,14
2019-01-16T19:59:54.724Z,16
2019-01-16T20:04:54.628Z,21
2019-01-16T20:09:54.854Z,20
2019-01-16T20:14:54.589Z,19
2019-01-16T20:19:54.860Z,17
2019-01-16T20:24:54.750Z,18
2019-01-16T20:29:54.514Z,20
2019-01-16T20:34:54.482Z,18
2019-01-16T20:39:54.763Z,12
2019-01-16T20:44:54.766Z,13
2019-01-16T20:49:54.691Z,18
2019-01-16T20:54:54.754Z,16
2019-01-16T20:59:54.748Z,18
2019-01-16T21:04:54.811Z,14
2019-01-16T21:09:54.730Z,20
2019-01-16T21:14:54.685Z,16
2019-01-16T21:19:54.622Z,19
2019-01-16T21:24:54.754Z,17
2019-01-16T21:29:54.737Z,18
2019-01-16T21:34:54.474Z,19
2019-01-16T21:39:54.756Z,14
2019-01-16T21:44:54.409Z,18
2019-01-16T21:49:54.735Z,20
2019-01-16T21:54:54.403Z,13
2019-01-16T21:59:54.760Z,6
2019-01-16T22:04:54.362Z,4
2019-01-16T22:09:54.543Z,2
2019-01-16T22:14:54.720Z,1
2019-01-16T22:19:54.592Z,1
2019-01-16T22:24:54.389Z,0
2019-01-16T22:29:54.687Z,0
2019-01-16T22:34:54.512Z,0
2019-01-16T22:39:54.450Z,0
2019-01-16T22:44:54.577Z,0
2019-01-16T22:49:54.634Z,0
2019-01-16T22:54:54.635Z,0
2019-01-16T22:59:54.315Z,0
2019-01-16T23:04:54.408Z,0
2019-01-16T23:09:54.406Z,0
2019-01-16T23:14:54.560Z,0
2019-01-16T23:19:54.381Z,0
2019-01-16T23:24:54.330Z,0
2019-01-16T23:29:54.606Z,0
2019-01-16T23:34:54.557Z,0
2019-01-16T23:39:54.390Z,0
2019-01-16T23:44:54.561Z,0
2019-01-16T23:49:54.520Z,0
2019-01-16T23:54:54.579Z,0
2019-01-16T23:59:54.550Z,0
